sensor_id;sensor_type;location;lat;lon;timestamp;pressure;altitude;pressure_sealevel;temperature;humidity
8575;BME280;4325;42.520;27.448;2023-05-20T00:01:04;101058.00;;;18.41;88.70
8575;BME280;4325;42.520;27.448;2023-05-20T00:03:31;101048.34;;;18.38;88.84
8575;BME280;4325;42.520;27.448;2023-05-20T00:05:58;101056.19;;;18.36;88.71
8575;BME280;4325;42.520;27.448;2023-05-20T00:08:25;101058.13;;;18.36;88.42
8575;BME280;4325;42.520;27.448;2023-05-20T00:10:52;101055.69;;;18.34;88.79
8575;BME280;4325;42.520;27.448;2023-05-20T00:13:18;101055.69;;;18.34;88.33
8575;BME280;4325;42.520;27.448;2023-05-20T00:15:45;101061.97;;;18.26;88.47
8575;BME280;4325;42.520;27.448;2023-05-20T00:18:13;101055.59;;;18.26;89.08
8575;BME280;4325;42.520;27.448;2023-05-20T00:20:40;101056.06;;;18.19;89.29
8575;BME280;4325;42.520;27.448;2023-05-20T00:23:07;101056.66;;;18.16;89.52
8575;BME280;4325;42.520;27.448;2023-05-20T00:25:34;101049.63;;;18.10;89.58
8575;BME280;4325;42.520;27.448;2023-05-20T00:28:01;101057.56;;;18.03;89.93
8575;BME280;4325;42.520;27.448;2023-05-20T00:30:28;101060.88;;;17.92;90.61
8575;BME280;4325;42.520;27.448;2023-05-20T00:32:55;101054.94;;;17.85;91.25
8575;BME280;4325;42.520;27.448;2023-05-20T00:35:23;101057.53;;;17.81;91.30
8575;BME280;4325;42.520;27.448;2023-05-20T00:37:50;101051.78;;;17.77;91.96
8575;BME280;4325;42.520;27.448;2023-05-20T00:40:17;101062.78;;;17.69;92.03
8575;BME280;4325;42.520;27.448;2023-05-20T00:42:45;101057.16;;;17.60;93.02
8575;BME280;4325;42.520;27.448;2023-05-20T00:45:12;101072.44;;;17.58;93.26
8575;BME280;4325;42.520;27.448;2023-05-20T00:47:39;101068.16;;;17.52;93.48
8575;BME280;4325;42.520;27.448;2023-05-20T00:50:08;101060.75;;;17.47;93.93
8575;BME280;4325;42.520;27.448;2023-05-20T00:52:36;101059.09;;;17.46;94.37
8575;BME280;4325;42.520;27.448;2023-05-20T00:55:06;101063.91;;;17.41;94.43
8575;BME280;4325;42.520;27.448;2023-05-20T00:57:33;101075.91;;;17.36;94.72
8575;BME280;4325;42.520;27.448;2023-05-20T01:00:00;101077.66;;;17.32;95.54
8575;BME280;4325;42.520;27.448;2023-05-20T01:02:27;101086.06;;;17.27;96.18
8575;BME280;4325;42.520;27.448;2023-05-20T01:04:54;101084.53;;;17.21;96.29
8575;BME280;4325;42.520;27.448;2023-05-20T01:07:21;101081.06;;;17.15;96.70
8575;BME280;4325;42.520;27.448;2023-05-20T01:09:51;101082.50;;;17.13;97.40
8575;BME280;4325;42.520;27.448;2023-05-20T01:12:22;101072.84;;;17.10;97.71
8575;BME280;4325;42.520;27.448;2023-05-20T01:14:56;101066.28;;;17.06;97.97
8575;BME280;4325;42.520;27.448;2023-05-20T01:17:26;101077.75;;;17.13;98.71
8575;BME280;4325;42.520;27.448;2023-05-20T01:19:54;101076.13;;;17.12;98.80
8575;BME280;4325;42.520;27.448;2023-05-20T01:22:24;101073.88;;;17.14;99.16
8575;BME280;4325;42.520;27.448;2023-05-20T01:24:52;101085.97;;;17.18;99.37
8575;BME280;4325;42.520;27.448;2023-05-20T01:27:20;101083.09;;;17.24;99.52
8575;BME280;4325;42.520;27.448;2023-05-20T01:29:49;101093.97;;;17.34;98.87
8575;BME280;4325;42.520;27.448;2023-05-20T01:32:19;101080.22;;;17.42;98.47
8575;BME280;4325;42.520;27.448;2023-05-20T01:34:47;101072.53;;;17.53;97.66
8575;BME280;4325;42.520;27.448;2023-05-20T01:37:16;101077.97;;;17.58;97.45
8575;BME280;4325;42.520;27.448;2023-05-20T01:39:45;101082.56;;;17.62;97.24
8575;BME280;4325;42.520;27.448;2023-05-20T01:42:14;101080.41;;;17.73;96.40
8575;BME280;4325;42.520;27.448;2023-05-20T01:44:41;101081.25;;;17.73;95.87
8575;BME280;4325;42.520;27.448;2023-05-20T01:47:08;101076.19;;;17.75;95.64
8575;BME280;4325;42.520;27.448;2023-05-20T01:49:35;101078.66;;;17.77;95.67
8575;BME280;4325;42.520;27.448;2023-05-20T01:52:03;101081.31;;;17.82;95.29
8575;BME280;4325;42.520;27.448;2023-05-20T01:54:30;101074.16;;;17.81;95.25
8575;BME280;4325;42.520;27.448;2023-05-20T01:56:58;101081.19;;;17.87;94.77
8575;BME280;4325;42.520;27.448;2023-05-20T01:59:25;101076.81;;;17.86;94.78
8575;BME280;4325;42.520;27.448;2023-05-20T02:01:52;101079.97;;;17.93;93.58
8575;BME280;4325;42.520;27.448;2023-05-20T02:04:38;101086.63;;;17.92;93.83
8575;BME280;4325;42.520;27.448;2023-05-20T02:07:06;101077.81;;;17.90;93.92
8575;BME280;4325;42.520;27.448;2023-05-20T02:09:33;101082.22;;;17.91;93.91
8575;BME280;4325;42.520;27.448;2023-05-20T02:12:01;101079.97;;;17.93;94.18
8575;BME280;4325;42.520;27.448;2023-05-20T02:14:28;101081.09;;;17.92;93.96
8575;BME280;4325;42.520;27.448;2023-05-20T02:16:55;101076.88;;;17.95;94.00
8575;BME280;4325;42.520;27.448;2023-05-20T02:19:22;101080.97;;;17.97;94.14
8575;BME280;4325;42.520;27.448;2023-05-20T02:21:50;101081.78;;;17.98;94.09
8575;BME280;4325;42.520;27.448;2023-05-20T02:24:17;101084.44;;;18.03;94.59
8575;BME280;4325;42.520;27.448;2023-05-20T02:26:45;101081.78;;;17.98;94.99
8575;BME280;4325;42.520;27.448;2023-05-20T02:29:15;101080.34;;;18.00;95.36
8575;BME280;4325;42.520;27.448;2023-05-20T02:31:42;101090.41;;;17.96;95.59
8575;BME280;4325;42.520;27.448;2023-05-20T02:34:09;101090.81;;;18.03;95.69
8575;BME280;4325;42.520;27.448;2023-05-20T02:36:36;101088.34;;;18.02;96.13
8575;BME280;4325;42.520;27.448;2023-05-20T02:39:03;101086.72;;;18.01;95.91
8575;BME280;4325;42.520;27.448;2023-05-20T02:41:29;101087.13;;;17.94;96.42
8575;BME280;4325;42.520;27.448;2023-05-20T02:43:56;101086.13;;;17.90;96.85
8575;BME280;4325;42.520;27.448;2023-05-20T02:46:25;101090.84;;;17.90;98.02
8575;BME280;4325;42.520;27.448;2023-05-20T02:48:52;101093.09;;;17.88;97.81
8575;BME280;4325;42.520;27.448;2023-05-20T02:51:18;101097.00;;;17.87;98.45
8575;BME280;4325;42.520;27.448;2023-05-20T02:53:45;101100.09;;;17.85;98.59
8575;BME280;4325;42.520;27.448;2023-05-20T02:56:12;101105.41;;;17.81;99.09
8575;BME280;4325;42.520;27.448;2023-05-20T02:58:39;101106.44;;;17.86;99.57
8575;BME280;4325;42.520;27.448;2023-05-20T03:01:06;101098.66;;;17.88;99.07
8575;BME280;4325;42.520;27.448;2023-05-20T03:03:35;101097.81;;;17.87;99.28
8575;BME280;4325;42.520;27.448;2023-05-20T03:06:02;101108.28;;;17.90;100.00
8575;BME280;4325;42.520;27.448;2023-05-20T03:08:29;101113.81;;;17.90;100.00
8575;BME280;4325;42.520;27.448;2023-05-20T03:10:56;101113.81;;;17.90;100.00
8575;BME280;4325;42.520;27.448;2023-05-20T03:13:23;101120.47;;;17.89;100.00
8575;BME280;4325;42.520;27.448;2023-05-20T03:15:50;101122.13;;;17.90;100.00
8575;BME280;4325;42.520;27.448;2023-05-20T03:18:17;101125.09;;;17.94;100.00
8575;BME280;4325;42.520;27.448;2023-05-20T03:20:45;101123.97;;;17.95;100.00
8575;BME280;4325;42.520;27.448;2023-05-20T03:23:12;101121.19;;;17.95;100.00
8575;BME280;4325;42.520;27.448;2023-05-20T03:25:39;101125.81;;;17.99;100.00
8575;BME280;4325;42.520;27.448;2023-05-20T03:28:06;101126.84;;;18.03;100.00
8575;BME280;4325;42.520;27.448;2023-05-20T03:30:33;101126.69;;;18.08;100.00
8575;BME280;4325;42.520;27.448;2023-05-20T03:33:00;101131.81;;;18.15;99.75
8575;BME280;4325;42.520;27.448;2023-05-20T03:35:27;101128.44;;;18.18;99.38
8575;BME280;4325;42.520;27.448;2023-05-20T03:37:55;101126.47;;;18.18;99.11
8575;BME280;4325;42.520;27.448;2023-05-20T03:40:24;101130.38;;;18.17;99.16
8575;BME280;4325;42.520;27.448;2023-05-20T03:42:50;101125.00;;;18.21;98.40
8575;BME280;4325;42.520;27.448;2023-05-20T03:45:17;101116.59;;;18.26;98.51
8575;BME280;4325;42.520;27.448;2023-05-20T03:47:45;101122.63;;;18.28;98.40
8575;BME280;4325;42.520;27.448;2023-05-20T03:50:11;101123.34;;;18.33;98.03
8575;BME280;4325;42.520;27.448;2023-05-20T03:52:38;101131.47;;;18.30;98.21
8575;BME280;4325;42.520;27.448;2023-05-20T03:55:08;101120.06;;;18.31;98.54
8575;BME280;4325;42.520;27.448;2023-05-20T03:57:35;101125.47;;;18.36;98.14
8575;BME280;4325;42.520;27.448;2023-05-20T04:00:03;101121.06;;;18.35;98.29
8575;BME280;4325;42.520;27.448;2023-05-20T04:02:35;101126.59;;;18.35;98.50
8575;BME280;4325;42.520;27.448;2023-05-20T04:05:03;101125.97;;;18.38;98.30
8575;BME280;4325;42.520;27.448;2023-05-20T04:07:30;101122.38;;;18.38;98.50
8575;BME280;4325;42.520;27.448;2023-05-20T04:09:57;101115.41;;;18.40;98.38
8575;BME280;4325;42.520;27.448;2023-05-20T04:12:25;101107.06;;;18.40;98.14
8575;BME280;4325;42.520;27.448;2023-05-20T04:14:56;101104.72;;;18.48;97.93
8575;BME280;4325;42.520;27.448;2023-05-20T04:17:23;101105.22;;;18.50;97.68
8575;BME280;4325;42.520;27.448;2023-05-20T04:19:50;101114.44;;;18.59;97.45
8575;BME280;4325;42.520;27.448;2023-05-20T04:22:17;101114.69;;;18.71;97.19
8575;BME280;4325;42.520;27.448;2023-05-20T04:24:44;101122.22;;;18.79;97.14
8575;BME280;4325;42.520;27.448;2023-05-20T04:27:11;101123.28;;;18.91;96.26
8575;BME280;4325;42.520;27.448;2023-05-20T04:29:39;101126.47;;;19.07;95.50
8575;BME280;4325;42.520;27.448;2023-05-20T04:32:11;101127.66;;;19.15;94.57
8575;BME280;4325;42.520;27.448;2023-05-20T04:34:38;101135.50;;;19.21;94.77
8575;BME280;4325;42.520;27.448;2023-05-20T04:37:05;101117.88;;;19.26;94.17
8575;BME280;4325;42.520;27.448;2023-05-20T04:39:34;101121.34;;;19.31;93.70
8575;BME280;4325;42.520;27.448;2023-05-20T04:42:01;101123.63;;;19.29;94.49
8575;BME280;4325;42.520;27.448;2023-05-20T04:44:29;101120.84;;;19.29;94.53
8575;BME280;4325;42.520;27.448;2023-05-20T04:46:58;101118.25;;;19.33;94.32
8575;BME280;4325;42.520;27.448;2023-05-20T04:49:25;101126.91;;;19.31;94.26
8575;BME280;4325;42.520;27.448;2023-05-20T04:51:53;101123.94;;;19.28;94.80
8575;BME280;4325;42.520;27.448;2023-05-20T04:54:20;101123.00;;;19.32;94.76
8575;BME280;4325;42.520;27.448;2023-05-20T04:56:47;101129.88;;;19.35;94.79
8575;BME280;4325;42.520;27.448;2023-05-20T04:59:15;101125.63;;;19.37;94.73
8575;BME280;4325;42.520;27.448;2023-05-20T05:01:42;101129.78;;;19.48;94.09
8575;BME280;4325;42.520;27.448;2023-05-20T05:04:10;101127.34;;;19.55;94.01
8575;BME280;4325;42.520;27.448;2023-05-20T05:06:37;101133.59;;;19.69;93.25
8575;BME280;4325;42.520;27.448;2023-05-20T05:09:04;101132.31;;;19.75;92.24
8575;BME280;4325;42.520;27.448;2023-05-20T05:11:32;101121.53;;;19.83;91.74
8575;BME280;4325;42.520;27.448;2023-05-20T05:13:59;101132.00;;;19.86;91.80
8575;BME280;4325;42.520;27.448;2023-05-20T05:16:26;101132.34;;;19.93;91.19
8575;BME280;4325;42.520;27.448;2023-05-20T05:18:53;101136.25;;;19.92;91.09
8575;BME280;4325;42.520;27.448;2023-05-20T05:21:21;101133.97;;;19.85;91.36
8575;BME280;4325;42.520;27.448;2023-05-20T05:23:48;101141.47;;;19.85;92.09
8575;BME280;4325;42.520;27.448;2023-05-20T05:26:14;101152.13;;;19.91;91.56
8575;BME280;4325;42.520;27.448;2023-05-20T05:28:41;101141.16;;;19.86;91.74
8575;BME280;4325;42.520;27.448;2023-05-20T05:31:08;101148.31;;;19.78;92.32
8575;BME280;4325;42.520;27.448;2023-05-20T05:33:35;101144.75;;;19.78;92.36
8575;BME280;4325;42.520;27.448;2023-05-20T05:36:02;101152.41;;;19.72;93.04
8575;BME280;4325;42.520;27.448;2023-05-20T05:38:32;101139.00;;;19.66;93.96
8575;BME280;4325;42.520;27.448;2023-05-20T05:40:59;101161.03;;;19.62;94.78
8575;BME280;4325;42.520;27.448;2023-05-20T05:43:26;101152.19;;;19.60;94.63
8575;BME280;4325;42.520;27.448;2023-05-20T05:45:53;101162.50;;;19.60;94.94
8575;BME280;4325;42.520;27.448;2023-05-20T05:48:20;101162.50;;;19.60;95.85
8575;BME280;4325;42.520;27.448;2023-05-20T05:50:47;101155.13;;;19.55;96.35
8575;BME280;4325;42.520;27.448;2023-05-20T05:53:14;101136.47;;;19.47;97.31
8575;BME280;4325;42.520;27.448;2023-05-20T05:55:42;101143.31;;;19.41;99.56
8575;BME280;4325;42.520;27.448;2023-05-20T05:58:09;101139.66;;;19.32;100.00
8575;BME280;4325;42.520;27.448;2023-05-20T06:00:36;101143.56;;;19.31;100.00
8575;BME280;4325;42.520;27.448;2023-05-20T06:03:03;101143.06;;;19.29;100.00
8575;BME280;4325;42.520;27.448;2023-05-20T06:05:30;101134.53;;;19.26;100.00
8575;BME280;4325;42.520;27.448;2023-05-20T06:07:57;101134.75;;;19.29;100.00
8575;BME280;4325;42.520;27.448;2023-05-20T06:10:24;101130.66;;;19.27;100.00
8575;BME280;4325;42.520;27.448;2023-05-20T06:12:52;101133.09;;;19.28;100.00
8575;BME280;4325;42.520;27.448;2023-05-20T06:15:19;101138.66;;;19.28;100.00
8575;BME280;4325;42.520;27.448;2023-05-20T06:17:46;101130.50;;;19.32;100.00
8575;BME280;4325;42.520;27.448;2023-05-20T06:20:13;101128.28;;;19.42;100.00
8575;BME280;4325;42.520;27.448;2023-05-20T06:22:40;101129.97;;;19.60;100.00
8575;BME280;4325;42.520;27.448;2023-05-20T06:25:08;101135.59;;;19.77;100.00
8575;BME280;4325;42.520;27.448;2023-05-20T06:27:35;101132.84;;;19.95;100.00
8575;BME280;4325;42.520;27.448;2023-05-20T06:30:04;101131.22;;;20.11;100.00
8575;BME280;4325;42.520;27.448;2023-05-20T06:32:31;101128.75;;;20.18;100.00
8575;BME280;4325;42.520;27.448;2023-05-20T06:34:58;101132.69;;;20.17;100.00
8575;BME280;4325;42.520;27.448;2023-05-20T06:37:25;101125.69;;;20.19;100.00
8575;BME280;4325;42.520;27.448;2023-05-20T06:39:52;101128.75;;;20.18;100.00
8575;BME280;4325;42.520;27.448;2023-05-20T06:42:19;101129.44;;;20.15;100.00
8575;BME280;4325;42.520;27.448;2023-05-20T06:44:46;101123.50;;;20.08;100.00
8575;BME280;4325;42.520;27.448;2023-05-20T06:47:15;101115.38;;;20.03;100.00
8575;BME280;4325;42.520;27.448;2023-05-20T06:49:43;101121.56;;;20.00;100.00
8575;BME280;4325;42.520;27.448;2023-05-20T06:52:10;101117.47;;;19.97;100.00
8575;BME280;4325;42.520;27.448;2023-05-20T06:54:37;101122.84;;;19.94;100.00
8575;BME280;4325;42.520;27.448;2023-05-20T06:57:06;101115.19;;;19.91;100.00
8575;BME280;4325;42.520;27.448;2023-05-20T06:59:33;101116.97;;;19.87;100.00
8575;BME280;4325;42.520;27.448;2023-05-20T07:02:00;101117.13;;;19.82;100.00
8575;BME280;4325;42.520;27.448;2023-05-20T07:04:28;101113.66;;;19.67;100.00
8575;BME280;4325;42.520;27.448;2023-05-20T07:06:55;101118.56;;;19.70;100.00
8575;BME280;4325;42.520;27.448;2023-05-20T07:09:22;101117.25;;;19.76;100.00
8575;BME280;4325;42.520;27.448;2023-05-20T07:11:49;101112.22;;;19.87;100.00
8575;BME280;4325;42.520;27.448;2023-05-20T07:14:16;101107.00;;;19.94;100.00
8575;BME280;4325;42.520;27.448;2023-05-20T07:16:43;101111.09;;;19.97;100.00
8575;BME280;4325;42.520;27.448;2023-05-20T07:19:10;101117.13;;;19.99;100.00
8575;BME280;4325;42.520;27.448;2023-05-20T07:21:38;101117.97;;;20.08;100.00
8575;BME280;4325;42.520;27.448;2023-05-20T07:24:05;101117.63;;;20.18;100.00
8575;BME280;4325;42.520;27.448;2023-05-20T07:26:32;101115.06;;;20.30;100.00
8575;BME280;4325;42.520;27.448;2023-05-20T07:29:01;101111.44;;;20.55;100.00
8575;BME280;4325;42.520;27.448;2023-05-20T07:31:28;101121.19;;;20.95;100.00
8575;BME280;4325;42.520;27.448;2023-05-20T07:33:55;101129.63;;;21.25;100.00
8575;BME280;4325;42.520;27.448;2023-05-20T07:36:22;101129.25;;;21.35;98.86
8575;BME280;4325;42.520;27.448;2023-05-20T07:38:50;101128.97;;;21.28;97.21
8575;BME280;4325;42.520;27.448;2023-05-20T07:41:17;101127.72;;;21.17;97.12
8575;BME280;4325;42.520;27.448;2023-05-20T07:43:45;101128.66;;;21.21;97.17
8575;BME280;4325;42.520;27.448;2023-05-20T07:46:12;101123.97;;;21.50;96.97
8575;BME280;4325;42.520;27.448;2023-05-20T07:48:38;101126.75;;;22.09;92.01
8575;BME280;4325;42.520;27.448;2023-05-20T07:51:05;101125.91;;;22.70;88.86
8575;BME280;4325;42.520;27.448;2023-05-20T07:53:32;101121.75;;;23.33;85.58
8575;BME280;4325;42.520;27.448;2023-05-20T07:56:00;101121.78;;;23.82;82.08
8575;BME280;4325;42.520;27.448;2023-05-20T07:58:27;101128.72;;;24.00;77.84
8575;BME280;4325;42.520;27.448;2023-05-20T08:00:55;101130.59;;;23.96;75.19
8575;BME280;4325;42.520;27.448;2023-05-20T08:03:22;101130.16;;;23.94;74.65
8575;BME280;4325;42.520;27.448;2023-05-20T08:05:49;101115.69;;;23.92;73.79
8575;BME280;4325;42.520;27.448;2023-05-20T08:08:16;101125.13;;;24.11;72.83
8575;BME280;4325;42.520;27.448;2023-05-20T08:10:43;101130.47;;;24.28;72.35
8575;BME280;4325;42.520;27.448;2023-05-20T08:13:11;101121.91;;;24.37;72.09
8575;BME280;4325;42.520;27.448;2023-05-20T08:15:38;101129.59;;;24.40;70.96
8575;BME280;4325;42.520;27.448;2023-05-20T08:18:05;101129.53;;;24.52;70.04
8575;BME280;4325;42.520;27.448;2023-05-20T08:20:32;101147.31;;;25.00;70.79
8575;BME280;4325;42.520;27.448;2023-05-20T08:22:59;101134.06;;;25.28;67.53
8575;BME280;4325;42.520;27.448;2023-05-20T08:25:26;101145.19;;;25.55;63.47
8575;BME280;4325;42.520;27.448;2023-05-20T08:27:53;101143.25;;;26.06;61.40
8575;BME280;4325;42.520;27.448;2023-05-20T08:30:21;101127.63;;;26.63;60.67
8575;BME280;4325;42.520;27.448;2023-05-20T08:32:48;101135.03;;;26.90;57.42
8575;BME280;4325;42.520;27.448;2023-05-20T08:35:15;101141.34;;;26.83;52.92
8575;BME280;4325;42.520;27.448;2023-05-20T08:37:41;101143.31;;;26.83;50.59
8575;BME280;4325;42.520;27.448;2023-05-20T08:40:09;101141.69;;;26.82;50.05
8575;BME280;4325;42.520;27.448;2023-05-20T08:42:40;101134.47;;;26.81;49.07
8575;BME280;4325;42.520;27.448;2023-05-20T08:45:10;101130.25;;;27.13;48.78
8575;BME280;4325;42.520;27.448;2023-05-20T08:47:40;101132.38;;;27.20;48.50
8575;BME280;4325;42.520;27.448;2023-05-20T08:50:09;101135.03;;;27.55;47.97
8575;BME280;4325;42.520;27.448;2023-05-20T08:52:37;101123.56;;;27.93;47.56
8575;BME280;4325;42.520;27.448;2023-05-20T08:55:12;101130.56;;;28.02;47.50
8575;BME280;4325;42.520;27.448;2023-05-20T08:57:40;101132.88;;;27.97;47.60
8575;BME280;4325;42.520;27.448;2023-05-20T09:00:11;101135.75;;;27.74;47.32
8575;BME280;4325;42.520;27.448;2023-05-20T09:02:44;101128.50;;;27.50;48.06
8575;BME280;4325;42.520;27.448;2023-05-20T09:05:11;101136.75;;;27.17;48.62
8575;BME280;4325;42.520;27.448;2023-05-20T09:07:38;101142.28;;;26.91;50.83
8575;BME280;4325;42.520;27.448;2023-05-20T09:10:07;101138.28;;;26.73;52.16
8575;BME280;4325;42.520;27.448;2023-05-20T09:12:35;101143.00;;;26.31;53.41
8575;BME280;4325;42.520;27.448;2023-05-20T09:15:02;101148.34;;;25.85;56.24
8575;BME280;4325;42.520;27.448;2023-05-20T09:17:29;101145.03;;;25.48;58.99
8575;BME280;4325;42.520;27.448;2023-05-20T09:19:58;101146.19;;;25.32;62.28
8575;BME280;4325;42.520;27.448;2023-05-20T09:22:26;101147.09;;;25.20;62.80
8575;BME280;4325;42.520;27.448;2023-05-20T09:24:53;101142.38;;;25.09;64.41
8575;BME280;4325;42.520;27.448;2023-05-20T09:27:21;101143.78;;;25.03;65.96
8575;BME280;4325;42.520;27.448;2023-05-20T09:29:48;101139.00;;;25.03;66.93
8575;BME280;4325;42.520;27.448;2023-05-20T09:32:16;101138.19;;;25.03;69.08
8575;BME280;4325;42.520;27.448;2023-05-20T09:34:45;101144.56;;;24.87;69.35
8575;BME280;4325;42.520;27.448;2023-05-20T09:37:16;101147.19;;;24.80;71.36
8575;BME280;4325;42.520;27.448;2023-05-20T09:39:52;101127.41;;;24.61;72.32
8575;BME280;4325;42.520;27.448;2023-05-20T09:42:25;101154.09;;;24.43;73.15
8575;BME280;4325;42.520;27.448;2023-05-20T09:44:54;101150.88;;;24.17;75.56
8575;BME280;4325;42.520;27.448;2023-05-20T09:47:31;101145.19;;;23.89;77.91
8575;BME280;4325;42.520;27.448;2023-05-20T09:49:59;101158.13;;;23.57;79.23
8575;BME280;4325;42.520;27.448;2023-05-20T09:52:28;101165.03;;;23.27;80.63
8575;BME280;4325;42.520;27.448;2023-05-20T09:54:56;101161.13;;;22.95;82.80
8575;BME280;4325;42.520;27.448;2023-05-20T09:57:24;101165.78;;;22.71;82.86
8575;BME280;4325;42.520;27.448;2023-05-20T09:59:51;101174.78;;;22.56;84.06
8575;BME280;4325;42.520;27.448;2023-05-20T10:02:19;101175.72;;;22.39;84.93
8575;BME280;4325;42.520;27.448;2023-05-20T10:04:48;101176.75;;;22.34;85.36
8575;BME280;4325;42.520;27.448;2023-05-20T10:07:30;101181.84;;;22.32;86.34
8575;BME280;4325;42.520;27.448;2023-05-20T10:10:13;101170.56;;;22.29;89.50
8575;BME280;4325;42.520;27.448;2023-05-20T10:12:50;101173.69;;;22.27;92.75
8575;BME280;4325;42.520;27.448;2023-05-20T10:15:25;101166.88;;;22.16;96.86
8575;BME280;4325;42.520;27.448;2023-05-20T10:18:04;101172.38;;;22.04;100.00
8575;BME280;4325;42.520;27.448;2023-05-20T10:20:44;101169.31;;;21.97;100.00
8575;BME280;4325;42.520;27.448;2023-05-20T10:23:21;101162.56;;;21.98;100.00
8575;BME280;4325;42.520;27.448;2023-05-20T10:25:52;101157.81;;;21.99;100.00
8575;BME280;4325;42.520;27.448;2023-05-20T10:28:27;101158.44;;;22.04;100.00
8575;BME280;4325;42.520;27.448;2023-05-20T10:30:55;101160.34;;;22.12;100.00
8575;BME280;4325;42.520;27.448;2023-05-20T10:33:22;101163.44;;;22.19;100.00
8575;BME280;4325;42.520;27.448;2023-05-20T10:35:49;101155.53;;;22.21;100.00
8575;BME280;4325;42.520;27.448;2023-05-20T10:38:17;101167.28;;;22.27;100.00
8575;BME280;4325;42.520;27.448;2023-05-20T10:40:46;101155.44;;;22.30;100.00
8575;BME280;4325;42.520;27.448;2023-05-20T10:43:14;101153.53;;;22.22;100.00
8575;BME280;4325;42.520;27.448;2023-05-20T10:45:48;101144.56;;;22.16;100.00
8575;BME280;4325;42.520;27.448;2023-05-20T10:48:19;101150.34;;;22.11;100.00
8575;BME280;4325;42.520;27.448;2023-05-20T10:50:47;101147.59;;;22.03;100.00
8575;BME280;4325;42.520;27.448;2023-05-20T10:53:14;101148.16;;;21.96;100.00
8575;BME280;4325;42.520;27.448;2023-05-20T10:55:48;101145.44;;;21.79;100.00
8575;BME280;4325;42.520;27.448;2023-05-20T10:58:17;101146.28;;;21.71;100.00
8575;BME280;4325;42.520;27.448;2023-05-20T11:00:44;101135.19;;;21.62;100.00
8575;BME280;4325;42.520;27.448;2023-05-20T11:03:12;101139.19;;;21.53;100.00
8575;BME280;4325;42.520;27.448;2023-05-20T11:05:39;101125.78;;;21.46;100.00
8575;BME280;4325;42.520;27.448;2023-05-20T11:08:08;101130.53;;;21.46;100.00
8575;BME280;4325;42.520;27.448;2023-05-20T11:10:35;101126.28;;;21.40;100.00
8575;BME280;4325;42.520;27.448;2023-05-20T11:13:04;101122.66;;;21.48;100.00
8575;BME280;4325;42.520;27.448;2023-05-20T11:15:33;101125.00;;;21.66;100.00
8575;BME280;4325;42.520;27.448;2023-05-20T11:18:02;101125.25;;;21.82;100.00
8575;BME280;4325;42.520;27.448;2023-05-20T11:20:30;101129.31;;;21.93;100.00
8575;BME280;4325;42.520;27.448;2023-05-20T11:23:00;101119.41;;;22.04;100.00
8575;BME280;4325;42.520;27.448;2023-05-20T11:25:28;101123.31;;;22.03;100.00
8575;BME280;4325;42.520;27.448;2023-05-20T11:27:55;101119.13;;;21.97;100.00
8575;BME280;4325;42.520;27.448;2023-05-20T11:30:23;101116.00;;;21.99;100.00
8575;BME280;4325;42.520;27.448;2023-05-20T11:32:58;101118.22;;;22.05;100.00
8575;BME280;4325;42.520;27.448;2023-05-20T11:35:26;101108.97;;;22.13;100.00
8575;BME280;4325;42.520;27.448;2023-05-20T11:38:00;101114.91;;;22.32;100.00
8575;BME280;4325;42.520;27.448;2023-05-20T11:40:28;101108.91;;;22.63;100.00
8575;BME280;4325;42.520;27.448;2023-05-20T11:42:58;101104.91;;;22.85;100.00
8575;BME280;4325;42.520;27.448;2023-05-20T11:45:26;101108.06;;;23.08;100.00
8575;BME280;4325;42.520;27.448;2023-05-20T11:48:04;101098.72;;;23.48;100.00
8575;BME280;4325;42.520;27.448;2023-05-20T11:50:33;101084.84;;;23.76;97.12
8575;BME280;4325;42.520;27.448;2023-05-20T11:53:04;101087.69;;;24.04;93.69
8575;BME280;4325;42.520;27.448;2023-05-20T11:55:31;101081.38;;;24.47;90.89
8575;BME280;4325;42.520;27.448;2023-05-20T11:57:59;101078.91;;;25.01;86.21
8575;BME280;4325;42.520;27.448;2023-05-20T12:00:28;101077.75;;;25.02;83.65
8575;BME280;4325;42.520;27.448;2023-05-20T12:02:55;101070.06;;;24.55;86.13
8575;BME280;4325;42.520;27.448;2023-05-20T12:05:22;101065.09;;;24.37;87.94
8575;BME280;4325;42.520;27.448;2023-05-20T12:07:48;101061.47;;;24.48;88.57
8575;BME280;4325;42.520;27.448;2023-05-20T12:10:15;101057.19;;;24.98;84.21
8575;BME280;4325;42.520;27.448;2023-05-20T12:12:43;101046.75;;;26.72;76.89
8575;BME280;4325;42.520;27.448;2023-05-20T12:15:11;101052.69;;;30.47;60.04
8575;BME280;4325;42.520;27.448;2023-05-20T12:17:46;101033.75;;;32.79;46.47
8575;BME280;4325;42.520;27.448;2023-05-20T12:20:15;101039.84;;;34.10;41.91
8575;BME280;4325;42.520;27.448;2023-05-20T12:22:43;101029.13;;;35.32;40.93
8575;BME280;4325;42.520;27.448;2023-05-20T12:25:11;101025.63;;;37.01;37.09
8575;BME280;4325;42.520;27.448;2023-05-20T12:27:39;101021.28;;;38.56;33.52
8575;BME280;4325;42.520;27.448;2023-05-20T12:30:08;101010.16;;;40.33;31.17
8575;BME280;4325;42.520;27.448;2023-05-20T12:32:36;101005.34;;;41.95;29.12
8575;BME280;4325;42.520;27.448;2023-05-20T12:35:05;100999.69;;;43.11;27.58
8575;BME280;4325;42.520;27.448;2023-05-20T12:37:32;100982.53;;;43.79;26.27
8575;BME280;4325;42.520;27.448;2023-05-20T12:39:59;100971.13;;;43.46;24.79
8575;BME280;4325;42.520;27.448;2023-05-20T12:42:26;100962.91;;;43.30;25.08
8575;BME280;4325;42.520;27.448;2023-05-20T12:44:53;100964.84;;;43.71;25.51
8575;BME280;4325;42.520;27.448;2023-05-20T12:47:20;100957.06;;;43.92;24.57
8575;BME280;4325;42.520;27.448;2023-05-20T12:49:47;100946.47;;;44.13;23.65
8575;BME280;4325;42.520;27.448;2023-05-20T12:52:15;100953.91;;;44.34;23.92
8575;BME280;4325;42.520;27.448;2023-05-20T12:54:42;100939.34;;;44.43;23.70
8575;BME280;4325;42.520;27.448;2023-05-20T12:57:11;100934.56;;;44.40;24.09
8575;BME280;4325;42.520;27.448;2023-05-20T12:59:38;100922.47;;;43.15;24.91
8575;BME280;4325;42.520;27.448;2023-05-20T13:02:06;100926.72;;;41.98;25.38